createdAt,value
2023-05-03T00:03:07.050Z,65.50
2023-05-03T00:08:09.380Z,66.50
2023-05-03T00:13:11.749Z,66.30
2023-05-03T00:18:14.630Z,66.40
2023-05-03T00:23:17.210Z,66.10
2023-05-03T00:28:19.467Z,64.60
2023-05-03T00:33:21.815Z,64.40
2023-05-03T00:38:24.124Z,64.40
2023-05-03T00:43:26.615Z,64.90
2023-05-03T00:48:29.377Z,66.00
2023-05-03T00:53:31.722Z,66.00
2023-05-03T00:58:36.489Z,68.70
2023-05-03T01:03:41.607Z,70.50
2023-05-03T01:08:53.927Z,72.80
2023-05-03T01:14:10.430Z,74.80
2023-05-03T01:19:40.597Z,75.90
2023-05-03T01:24:47.384Z,76.70
2023-05-03T01:29:49.668Z,79.20
2023-05-03T01:35:08.871Z,81.40
2023-05-03T01:40:16.799Z,80.90
2023-05-03T01:45:19.553Z,80.90
2023-05-03T01:50:21.863Z,78.20
2023-05-03T01:55:24.172Z,78.10
2023-05-03T02:00:26.713Z,80.10
2023-05-03T02:05:28.990Z,81.40
2023-05-03T02:10:31.268Z,82.10
2023-05-03T02:15:33.666Z,83.30
2023-05-03T02:20:37.920Z,83.50
2023-05-03T02:25:40.956Z,83.70
2023-05-03T02:30:43.855Z,84.70
2023-05-03T02:35:46.200Z,85.50
2023-05-03T02:40:48.443Z,84.50
2023-05-03T02:45:50.985Z,85.50
2023-05-03T02:50:54.981Z,85.20
2023-05-03T02:55:57.616Z,86.00
2023-05-03T03:01:00.428Z,86.20
2023-05-03T03:06:05.941Z,87.10
2023-05-03T03:11:10.720Z,88.40
2023-05-03T03:16:13.557Z,88.40
2023-05-03T03:21:16.083Z,88.30
2023-05-03T03:26:19.059Z,88.20
2023-05-03T03:31:23.629Z,88.00
2023-05-03T03:36:27.972Z,87.10
2023-05-03T03:41:30.754Z,87.20
2023-05-03T03:46:33.173Z,88.30
2023-05-03T03:51:36.640Z,89.70
2023-05-03T03:56:39.093Z,90.20
2023-05-03T04:01:42.049Z,90.00
2023-05-03T04:06:46.404Z,89.90
2023-05-03T04:11:51.172Z,88.60
2023-05-03T04:16:54.561Z,88.70
2023-05-03T04:21:57.073Z,87.70
2023-05-03T04:27:04.332Z,84.30
2023-05-03T04:32:08.547Z,82.10
2023-05-03T04:37:13.616Z,84.90
2023-05-03T04:42:16.076Z,82.30
2023-05-03T04:47:19.678Z,81.50
2023-05-03T04:52:22.206Z,79.70
2023-05-03T04:57:25.066Z,77.40
2023-05-03T05:02:29.011Z,76.80
2023-05-03T05:07:31.459Z,76.80
2023-05-03T05:12:33.947Z,75.60
2023-05-03T05:17:39.442Z,74.40
2023-05-03T05:22:42.997Z,74.30
2023-05-03T05:27:45.426Z,75.00
2023-05-03T05:32:48.720Z,73.10
2023-05-03T05:37:51.064Z,71.90
2023-05-03T05:42:53.652Z,71.50
2023-05-03T05:47:58.173Z,71.30
2023-05-03T05:53:01.907Z,69.20
2023-05-03T05:58:09.840Z,69.00
2023-05-03T06:03:18.599Z,67.90
2023-05-03T06:08:23.598Z,67.20
2023-05-03T06:13:26.387Z,66.00
2023-05-03T06:18:29.384Z,65.70
2023-05-03T06:23:33.485Z,65.60
2023-05-03T06:28:37.144Z,65.70
2023-05-03T06:33:40.401Z,64.80
2023-05-03T06:38:43.925Z,64.00
2023-05-03T06:43:46.393Z,65.70
2023-05-03T06:48:48.812Z,65.90
2023-05-03T06:53:51.296Z,66.30
2023-05-03T06:58:54.323Z,68.10
2023-05-03T07:03:57.203Z,67.20
2023-05-03T07:09:00.725Z,67.50
2023-05-03T07:14:03.013Z,67.40
2023-05-03T07:19:05.266Z,68.50
2023-05-03T07:24:08.548Z,66.30
2023-05-03T07:29:10.800Z,63.40
2023-05-03T07:34:13.176Z,64.00
2023-05-03T07:39:15.829Z,61.70
2023-05-03T07:44:18.153Z,60.60
2023-05-03T07:49:20.524Z,54.60
2023-05-03T07:54:22.812Z,54.40
2023-05-03T07:59:25.121Z,55.10
2023-05-03T08:04:27.864Z,51.90
2023-05-03T08:09:30.703Z,52.80
2023-05-03T08:14:33.915Z,54.40
2023-05-03T08:19:36.240Z,51.40
2023-05-03T08:24:39.146Z,49.50
2023-05-03T08:29:41.451Z,49.70
2023-05-03T08:34:44.295Z,49.10
2023-05-03T08:39:47.571Z,48.90
2023-05-03T08:44:49.918Z,48.00
2023-05-03T08:49:53.766Z,48.80
2023-05-03T08:54:56.082Z,47.10
2023-05-03T09:00:01.646Z,47.20
2023-05-03T09:05:06.648Z,45.40
2023-05-03T09:10:26.718Z,45.20
2023-05-03T09:15:32.483Z,44.90
2023-05-03T09:20:36.989Z,45.20
2023-05-03T09:25:51.560Z,45.90
2023-05-03T09:31:07.509Z,42.50
2023-05-03T09:36:11.014Z,42.80
2023-05-03T09:41:13.485Z,43.30
2023-05-03T09:46:15.885Z,45.20
2023-05-03T09:51:18.685Z,46.20
2023-05-03T09:56:26.389Z,45.30
2023-05-03T10:01:28.876Z,43.30
2023-05-03T10:06:33.949Z,42.90
2023-05-03T10:11:36.793Z,41.00
2023-05-03T10:16:43.388Z,40.20
2023-05-03T10:21:55.535Z,41.20
2023-05-03T10:26:58.042Z,41.20
2023-05-03T10:32:01.988Z,42.50
2023-05-03T10:37:11.101Z,41.20
2023-05-03T10:42:13.664Z,40.50
2023-05-03T10:47:24.483Z,39.30
2023-05-03T10:52:36.232Z,39.50
2023-05-03T10:57:40.620Z,39.40
2023-05-03T11:03:04.653Z,40.30
2023-05-03T11:08:17.676Z,39.90
2023-05-03T11:13:20.139Z,39.30
2023-05-03T11:18:29.152Z,38.50
2023-05-03T11:23:31.562Z,37.60
2023-05-03T11:28:34.027Z,35.40
2023-05-03T11:33:41.087Z,34.50
2023-05-03T11:38:43.655Z,35.50
2023-05-03T11:43:49.434Z,36.50
2023-05-03T11:48:56.340Z,36.70
2023-05-03T11:54:12.977Z,35.60
2023-05-03T11:59:40.503Z,36.20
2023-05-03T12:04:45.780Z,36.10
2023-05-03T12:10:00.848Z,34.20
2023-05-03T12:15:15.526Z,33.80
2023-05-03T12:25:28.055Z,34.70
2023-05-03T12:30:34.381Z,36.00
2023-05-03T12:35:39.994Z,36.90
2023-05-03T12:40:43.140Z,31.70
2023-05-03T12:45:52.275Z,29.70
2023-05-03T12:51:17.721Z,30.00
2023-05-03T12:56:24.583Z,32.20
2023-05-03T13:06:42.407Z,33.30
2023-05-03T13:11:48.289Z,32.50
2023-05-03T13:16:51.525Z,32.20
2023-05-03T13:21:54.294Z,32.50
2023-05-03T13:26:56.616Z,30.00
2023-05-03T13:31:59.180Z,30.60
2023-05-03T13:37:02.392Z,32.40
2023-05-03T13:42:04.885Z,34.00
2023-05-03T13:47:07.216Z,34.30
2023-05-03T13:52:10.339Z,34.90
2023-05-03T13:57:12.661Z,30.00
2023-05-03T14:02:15.607Z,25.30
2023-05-03T14:07:18.729Z,21.80
2023-05-03T14:12:21.680Z,23.60
2023-05-03T14:17:24.138Z,25.00
2023-05-03T14:22:27.600Z,23.30
2023-05-03T14:27:30.772Z,23.40
2023-05-03T14:32:33.397Z,21.60
2023-05-03T14:37:36.966Z,21.00
2023-05-03T14:42:39.428Z,21.10
2023-05-03T14:47:42.114Z,21.10
2023-05-03T14:52:44.463Z,20.00
2023-05-03T14:57:47.123Z,19.90
2023-05-03T15:02:55.857Z,19.40
2023-05-03T15:08:00.101Z,19.00
2023-05-03T15:13:02.947Z,21.50
2023-05-03T15:18:06.449Z,23.00
2023-05-03T15:23:09.092Z,21.00
2023-05-03T15:28:11.373Z,19.40
2023-05-03T15:33:13.942Z,20.20
2023-05-03T15:38:17.918Z,19.10
2023-05-03T15:43:20.241Z,18.40
2023-05-03T15:48:22.518Z,18.70
2023-05-03T15:53:26.797Z,19.20
2023-05-03T15:58:30.433Z,21.90
2023-05-03T16:03:32.814Z,25.10
2023-05-03T16:08:35.588Z,27.80
2023-05-03T16:13:38.412Z,29.60
2023-05-03T16:18:40.684Z,30.90
2023-05-03T16:23:43.046Z,30.00
2023-05-03T16:28:45.419Z,29.60
2023-05-03T16:33:47.710Z,30.70
2023-05-03T16:38:50.111Z,28.30
2023-05-03T16:43:52.437Z,29.60
2023-05-03T16:48:55.130Z,31.40
2023-05-03T16:53:57.732Z,33.00
2023-05-03T16:59:00.156Z,34.90
2023-05-03T17:04:04.582Z,36.60
2023-05-03T17:09:06.848Z,38.70
2023-05-03T17:14:09.471Z,38.80
2023-05-03T17:19:11.779Z,36.50
2023-05-03T17:24:14.035Z,37.40
2023-05-03T17:29:16.804Z,40.00
2023-05-03T17:34:20.678Z,41.50
2023-05-03T17:39:23.311Z,42.90
2023-05-03T17:44:26.251Z,45.50
2023-05-03T17:49:29.042Z,48.60
2023-05-03T17:54:32.319Z,49.20
2023-05-03T17:59:34.684Z,51.00
2023-05-03T18:04:37.008Z,51.60
2023-05-03T18:09:39.306Z,52.50
2023-05-03T18:14:42.223Z,54.30
2023-05-03T18:19:45.036Z,54.70
2023-05-03T18:24:47.454Z,56.70
2023-05-03T18:29:49.906Z,58.40
2023-05-03T18:34:52.221Z,59.30
2023-05-03T18:39:54.778Z,61.00
2023-05-03T18:44:57.100Z,62.90
2023-05-03T18:49:59.514Z,62.90
2023-05-03T18:55:01.951Z,62.30
2023-05-03T19:00:06.485Z,63.20
2023-05-03T19:05:12.062Z,65.10
2023-05-03T19:10:17.055Z,66.00
2023-05-03T19:15:19.380Z,66.90
2023-05-03T19:20:21.760Z,68.30
2023-05-03T19:25:24.084Z,69.60
2023-05-03T19:30:26.426Z,70.90
2023-05-03T19:35:28.794Z,70.20
2023-05-03T19:40:31.090Z,71.40
2023-05-03T19:45:34.212Z,72.20
2023-05-03T19:50:36.638Z,72.70
2023-05-03T19:55:38.931Z,72.60
2023-05-03T20:00:41.198Z,72.20
2023-05-03T20:05:43.569Z,71.40
2023-05-03T20:10:46.640Z,73.50
2023-05-03T20:15:50.068Z,74.90
2023-05-03T20:20:52.450Z,75.30
2023-05-03T20:25:55.405Z,76.00
2023-05-03T20:30:57.734Z,76.90
2023-05-03T20:35:59.984Z,78.00
2023-05-03T20:41:02.710Z,78.90
2023-05-03T20:46:05.241Z,80.00
2023-05-03T20:51:10.361Z,81.00
2023-05-03T20:56:12.705Z,81.70
2023-05-03T21:01:15.154Z,82.10
2023-05-03T21:06:17.717Z,82.40
2023-05-03T21:11:20.055Z,84.00
2023-05-03T21:16:23.198Z,84.70
2023-05-03T21:21:25.583Z,84.00
2023-05-03T21:26:29.145Z,83.70
2023-05-03T21:31:31.776Z,83.20
2023-05-03T21:36:34.083Z,84.50
2023-05-03T21:41:36.733Z,85.60
2023-05-03T21:46:42.872Z,85.90
2023-05-03T21:51:45.293Z,87.30
2023-05-03T21:56:48.127Z,87.60
2023-05-03T22:01:50.876Z,89.00
2023-05-03T22:06:53.832Z,88.00
2023-05-03T22:11:56.577Z,87.80
2023-05-03T22:16:59.339Z,88.60
2023-05-03T22:22:01.585Z,87.20
2023-05-03T22:27:03.878Z,87.90
2023-05-03T22:32:07.200Z,87.80
2023-05-03T22:37:09.587Z,90.00
2023-05-03T22:42:12.141Z,89.40
2023-05-03T22:47:14.470Z,90.10
2023-05-03T22:52:16.963Z,90.10
2023-05-03T22:57:19.249Z,89.30
2023-05-03T23:02:21.707Z,88.20
2023-05-03T23:07:23.980Z,89.30
2023-05-03T23:12:26.231Z,90.60
2023-05-03T23:17:28.809Z,91.30
2023-05-03T23:22:31.316Z,91.50
2023-05-03T23:27:33.646Z,91.70
2023-05-03T23:32:36.484Z,91.60
2023-05-03T23:37:39.328Z,91.10
2023-05-03T23:42:41.687Z,91.00
2023-05-03T23:47:43.967Z,91.40
2023-05-03T23:52:46.649Z,91.60
2023-05-03T23:57:48.918Z,91.70
